Time;durP1;ratioP1;P1;durP2;ratioP2;P2;SDS_P1;SDS_P2;PMS_P1;PMS_P2;Temp;Humidity;BMP_temperature;BMP_pressure;BME280_temperature;BME280_humidity;BME280_pressure;Samples;Min_cycle;Max_cycle;Signal;HPM_P1;HPM_P2
2022/06/25 00:02:25;;;;;;;1.38;0.30;;;;;;;;;;7388587;19;20010;-77
2022/06/25 00:07:34;;;;;;;1.10;0.20;;;;;;;;;;7392900;19;20010;-78
2022/06/25 00:10:00;;;;;;;1.17;0.50;;;;;;;;;;7390755;19;20002;-78
2022/06/25 00:12:34;;;;;;;1.65;0.50;;;;;;;;;;7392356;19;20006;-77
2022/06/25 00:15:03;;;;;;;0.80;0.30;;;;;;;;;;7392297;19;20002;-78
2022/06/25 00:17:29;;;;;;;1.08;0.30;;;;;;;;;;7392078;19;20126;-78
2022/06/25 00:19:54;;;;;;;0.43;0.30;;;;;;;;;;7391601;19;20703;-78
2022/06/25 00:22:19;;;;;;;1.88;0.40;;;;;;;;;;7383797;19;20021;-77
2022/06/25 00:24:45;;;;;;;0.95;0.30;;;;;;;;;;7388811;19;20007;-78
2022/06/25 00:27:10;;;;;;;4.30;0.50;;;;;;;;;;7391958;19;20603;-77
2022/06/25 00:29:35;;;;;;;0.25;0.25;;;;;;;;;;7390785;19;20030;-78
2022/06/25 00:32:00;;;;;;;0.50;0.30;;;;;;;;;;7388366;19;20006;-78
2022/06/25 00:34:26;;;;;;;0.25;0.25;;;;;;;;;;7389178;19;20010;-78
2022/06/25 00:36:52;;;;;;;0.40;0.40;;;;;;;;;;7391540;19;20113;-78
2022/06/25 00:39:17;;;;;;;0.55;0.30;;;;;;;;;;7391440;19;20070;-78
2022/06/25 00:41:43;;;;;;;2.50;0.40;;;;;;;;;;7389772;19;20006;-78
2022/06/25 00:44:09;;;;;;;0.47;0.40;;;;;;;;;;7389426;19;20011;-78
2022/06/25 00:46:35;;;;;;;3.03;0.57;;;;;;;;;;7399598;19;20013;-81
2022/06/25 00:49:00;;;;;;;0.60;0.60;;;;;;;;;;7397737;19;20066;-78
2022/06/25 00:51:27;;;;;;;0.30;0.22;;;;;;;;;;7397912;19;20111;-78
2022/06/25 00:53:57;;;;;;;1.30;0.20;;;;;;;;;;7397726;19;20010;-78
2022/06/25 00:56:27;;;;;;;1.95;0.47;;;;;;;;;;7397881;19;20002;-78
2022/06/25 00:58:56;;;;;;;0.25;0.25;;;;;;;;;;7396151;19;20015;-78
2022/06/25 01:01:23;;;;;;;0.30;0.30;;;;;;;;;;7396980;19;21094;-81
2022/06/25 01:03:48;;;;;;;1.45;0.40;;;;;;;;;;7396153;19;20015;-80
2022/06/25 01:06:13;;;;;;;0.50;0.32;;;;;;;;;;7396286;19;20027;-78
2022/06/25 01:08:39;;;;;;;2.13;0.30;;;;;;;;;;7396721;19;20027;-78
2022/06/25 01:11:05;;;;;;;1.65;0.32;;;;;;;;;;7399226;19;20099;-78
2022/06/25 01:13:31;;;;;;;0.43;0.20;;;;;;;;;;7394971;19;20011;-79
2022/06/25 01:15:56;;;;;;;0.50;0.30;;;;;;;;;;7397659;19;20011;-78
2022/06/25 01:18:21;;;;;;;1.55;0.60;;;;;;;;;;7395132;19;20036;-78
2022/06/25 01:20:47;;;;;;;1.80;0.40;;;;;;;;;;7394550;19;20461;-78
2022/06/25 01:23:13;;;;;;;0.57;0.30;;;;;;;;;;7396497;19;20456;-78
2022/06/25 01:25:40;;;;;;;0.47;0.40;;;;;;;;;;7396177;19;20006;-77
2022/06/25 01:28:06;;;;;;;0.60;0.30;;;;;;;;;;7396884;19;20002;-78
2022/06/25 01:30:33;;;;;;;0.30;0.30;;;;;;;;;;7397603;19;20035;-77
2022/06/25 01:32:58;;;;;;;2.38;0.50;;;;;;;;;;7391732;19;20030;-77
2022/06/25 01:35:24;;;;;;;1.85;0.40;;;;;;;;;;7393447;19;20011;-78
2022/06/25 01:37:49;;;;;;;1.10;0.22;;;;;;;;;;7396302;19;20010;-78
2022/06/25 01:40:15;;;;;;;1.73;0.47;;;;;;;;;;7395916;19;20472;-77
2022/06/25 01:42:59;;;;;;;0.50;0.22;;;;;;;;;;7396068;19;20002;-77
2022/06/25 01:45:35;;;;;;;0.90;0.60;;;;;;;;;;7397816;19;20031;-77
2022/06/25 01:48:01;;;;;;;0.38;0.38;;;;;;;;;;7393509;19;20013;-78
2022/06/25 01:50:27;;;;;;;1.13;0.40;;;;;;;;;;7396104;19;20368;-78
2022/06/25 01:52:53;;;;;;;1.38;0.40;;;;;;;;;;7394978;19;20514;-77
2022/06/25 01:55:19;;;;;;;2.92;0.40;;;;;;;;;;7392292;19;20477;-77
2022/06/25 01:57:44;;;;;;;0.25;0.25;;;;;;;;;;7390605;19;20010;-77
2022/06/25 02:00:14;;;;;;;0.28;0.28;;;;;;;;;;7394981;19;20010;-77
2022/06/25 02:02:41;;;;;;;1.65;0.32;;;;;;;;;;7395041;19;20014;-78
2022/06/25 02:05:07;;;;;;;0.20;0.20;;;;;;;;;;7395584;19;20006;-78
2022/06/25 02:07:33;;;;;;;1.73;0.30;;;;;;;;;;7394695;19;20006;-78
2022/06/25 02:09:58;;;;;;;0.20;0.20;;;;;;;;;;7395973;19;20006;-77
2022/06/25 02:12:24;;;;;;;0.68;0.55;;;;;;;;;;7393667;19;20024;-77
2022/06/25 02:14:49;;;;;;;0.35;0.30;;;;;;;;;;7392811;19;20007;-77
2022/06/25 02:17:15;;;;;;;1.65;0.43;;;;;;;;;;7393311;19;20007;-77
2022/06/25 02:19:40;;;;;;;1.02;0.30;;;;;;;;;;7393129;19;20014;-77
2022/06/25 02:22:06;;;;;;;0.68;0.50;;;;;;;;;;7393135;19;20010;-77
2022/06/25 02:24:32;;;;;;;0.47;0.10;;;;;;;;;;7392467;19;20003;-77
2022/06/25 02:26:57;;;;;;;0.30;0.30;;;;;;;;;;7393481;19;20068;-77
2022/06/25 02:29:23;;;;;;;3.17;0.38;;;;;;;;;;7393773;19;20018;-77
2022/06/25 02:31:48;;;;;;;3.50;0.30;;;;;;;;;;7391931;19;20034;-77
2022/06/25 02:34:14;;;;;;;0.95;0.28;;;;;;;;;;7394754;19;20427;-80
2022/06/25 02:36:39;;;;;;;2.47;0.38;;;;;;;;;;7395644;19;20081;-79
2022/06/25 02:39:04;;;;;;;0.25;0.20;;;;;;;;;;7392261;19;20009;-77
2022/06/25 02:41:30;;;;;;;0.73;0.30;;;;;;;;;;7392204;19;20074;-78
2022/06/25 02:43:55;;;;;;;1.10;0.40;;;;;;;;;;7393469;19;20031;-78
2022/06/25 02:46:20;;;;;;;0.98;0.52;;;;;;;;;;7392016;19;20018;-77
2022/06/25 02:48:45;;;;;;;1.73;0.50;;;;;;;;;;7392610;19;20003;-77
2022/06/25 02:51:11;;;;;;;0.38;0.30;;;;;;;;;;7393144;19;20050;-77
2022/06/25 02:53:36;;;;;;;0.73;0.30;;;;;;;;;;7392199;19;20006;-77
2022/06/25 02:58:55;;;;;;;3.33;1.17;;;;;;;;;;7393984;19;20036;-77
2022/06/25 03:01:28;;;;;;;0.82;0.40;;;;;;;;;;7391313;19;20014;-77
2022/06/25 03:03:54;;;;;;;1.65;0.63;;;;;;;;;;7390585;19;20014;-77
2022/06/25 03:06:20;;;;;;;0.98;0.30;;;;;;;;;;7393126;19;20343;-77
2022/06/25 03:08:46;;;;;;;1.85;0.30;;;;;;;;;;7389640;19;19999;-77
2022/06/25 03:11:12;;;;;;;0.22;0.22;;;;;;;;;;7393531;19;20078;-77
2022/06/25 03:13:38;;;;;;;0.43;0.43;;;;;;;;;;7392759;19;20006;-77
2022/06/25 03:16:04;;;;;;;0.43;0.30;;;;;;;;;;7391646;19;20011;-77
2022/06/25 03:18:30;;;;;;;1.50;0.73;;;;;;;;;;7390694;19;20480;-77
2022/06/25 03:20:55;;;;;;;1.63;0.40;;;;;;;;;;7392304;19;20006;-77
2022/06/25 03:23:20;;;;;;;2.10;0.40;;;;;;;;;;7392273;19;20494;-77
2022/06/25 03:25:46;;;;;;;0.90;0.47;;;;;;;;;;7391402;19;20014;-77
2022/06/25 03:28:12;;;;;;;0.63;0.30;;;;;;;;;;7393068;19;20016;-77
2022/06/25 03:30:37;;;;;;;3.25;0.40;;;;;;;;;;7392521;19;20010;-77
2022/06/25 03:33:03;;;;;;;1.30;0.50;;;;;;;;;;7392975;19;20111;-77
2022/06/25 03:35:29;;;;;;;3.53;0.35;;;;;;;;;;7392235;19;20465;-77
2022/06/25 03:37:55;;;;;;;1.98;0.20;;;;;;;;;;7391130;19;20148;-77
2022/06/25 03:40:20;;;;;;;0.85;0.40;;;;;;;;;;7393817;19;20022;-77
2022/06/25 03:42:45;;;;;;;0.47;0.20;;;;;;;;;;7392930;19;20048;-77
2022/06/25 03:45:11;;;;;;;1.75;0.30;;;;;;;;;;7391220;19;20014;-77
2022/06/25 03:47:36;;;;;;;1.55;0.32;;;;;;;;;;7390438;19;19999;-77
2022/06/25 03:50:02;;;;;;;0.13;0.10;;;;;;;;;;7390568;19;20804;-77
2022/06/25 03:52:28;;;;;;;0.90;0.20;;;;;;;;;;7391603;19;20502;-77
2022/06/25 03:54:53;;;;;;;0.57;0.20;;;;;;;;;;7389128;19;20014;-77
2022/06/25 03:57:18;;;;;;;0.25;0.25;;;;;;;;;;7391508;19;20295;-77
2022/06/25 03:59:44;;;;;;;2.78;0.50;;;;;;;;;;7392471;19;20002;-77
2022/06/25 04:02:09;;;;;;;0.52;0.15;;;;;;;;;;7386126;19;20010;-77
2022/06/25 04:04:34;;;;;;;2.47;0.20;;;;;;;;;;7388605;19;20021;-77
2022/06/25 04:07:00;;;;;;;1.45;0.40;;;;;;;;;;7390911;19;20013;-77
2022/06/25 04:09:25;;;;;;;1.77;0.30;;;;;;;;;;7389178;19;20334;-77
2022/06/25 04:11:50;;;;;;;1.55;0.30;;;;;;;;;;7391723;19;20486;-77
2022/06/25 04:14:16;;;;;;;3.15;0.35;;;;;;;;;;7387137;19;20436;-77
2022/06/25 04:16:41;;;;;;;1.02;0.25;;;;;;;;;;7387694;19;19999;-77
2022/06/25 04:19:06;;;;;;;0.15;0.15;;;;;;;;;;7383135;19;20010;-76
2022/06/25 04:21:32;;;;;;;0.50;0.28;;;;;;;;;;7389227;19;20028;-77
2022/06/25 04:23:57;;;;;;;1.98;0.50;;;;;;;;;;7390749;19;20019;-76
2022/06/25 04:26:23;;;;;;;0.52;0.30;;;;;;;;;;7387679;19;20011;-76
2022/06/25 04:29:03;;;;;;;1.17;0.15;;;;;;;;;;7387629;19;20462;-76
2022/06/25 04:31:33;;;;;;;4.68;0.38;;;;;;;;;;7389072;19;20461;-76
2022/06/25 04:33:59;;;;;;;0.30;0.20;;;;;;;;;;7390543;19;20002;-76
2022/06/25 04:36:25;;;;;;;0.25;0.20;;;;;;;;;;7386142;19;19998;-76
2022/06/25 04:38:51;;;;;;;0.22;0.22;;;;;;;;;;7387097;19;19995;-77
2022/06/25 04:41:16;;;;;;;1.55;0.30;;;;;;;;;;7387939;19;20007;-77
2022/06/25 04:43:42;;;;;;;0.10;0.10;;;;;;;;;;7389564;19;20027;-79
2022/06/25 04:46:07;;;;;;;0.50;0.30;;;;;;;;;;7390434;19;20013;-76
2022/06/25 04:48:33;;;;;;;0.40;0.20;;;;;;;;;;7386049;19;20002;-76
2022/06/25 04:50:58;;;;;;;0.30;0.20;;;;;;;;;;7386701;19;20015;-76
2022/06/25 04:53:23;;;;;;;1.85;0.50;;;;;;;;;;7388390;19;20010;-76
2022/06/25 04:55:49;;;;;;;1.10;0.50;;;;;;;;;;7389530;19;19999;-77
2022/06/25 04:58:14;;;;;;;2.55;0.40;;;;;;;;;;7388850;19;20005;-76
2022/06/25 05:00:40;;;;;;;2.67;0.60;;;;;;;;;;7386324;19;20005;-77
2022/06/25 05:03:08;;;;;;;0.20;0.20;;;;;;;;;;7382347;19;20026;-76
2022/06/25 05:05:34;;;;;;;2.75;0.60;;;;;;;;;;7388154;19;20014;-76
2022/06/25 05:07:59;;;;;;;0.65;0.30;;;;;;;;;;7388678;19;20457;-76
2022/06/25 05:10:26;;;;;;;2.00;0.40;;;;;;;;;;7383386;19;20349;-77
2022/06/25 05:15:35;;;;;;;2.17;0.40;;;;;;;;;;7389648;19;20005;-76
2022/06/25 05:18:01;;;;;;;0.30;0.30;;;;;;;;;;7383572;19;20070;-75
2022/06/25 05:20:26;;;;;;;0.88;0.40;;;;;;;;;;7384796;19;20401;-75
2022/06/25 05:22:51;;;;;;;0.38;0.38;;;;;;;;;;7386532;19;20010;-76
2022/06/25 05:25:17;;;;;;;0.88;0.50;;;;;;;;;;7389181;19;19990;-75
2022/06/25 05:27:42;;;;;;;1.38;0.45;;;;;;;;;;7386294;19;20019;-75
2022/06/25 05:30:09;;;;;;;0.40;0.40;;;;;;;;;;7388357;19;20013;-75
2022/06/25 05:32:34;;;;;;;3.60;0.70;;;;;;;;;;7390094;19;20432;-75
2022/06/25 05:34:59;;;;;;;0.50;0.50;;;;;;;;;;7393399;19;20044;-75
2022/06/25 05:37:25;;;;;;;0.93;0.68;;;;;;;;;;7394638;19;20664;-75
2022/06/25 05:39:51;;;;;;;2.30;0.50;;;;;;;;;;7393084;19;20014;-75
2022/06/25 05:42:17;;;;;;;0.75;0.50;;;;;;;;;;7392533;19;20437;-75
2022/06/25 05:44:43;;;;;;;0.77;0.63;;;;;;;;;;7391501;19;20011;-75
2022/06/25 05:47:09;;;;;;;2.65;0.60;;;;;;;;;;7393274;19;20048;-75
2022/06/25 05:49:34;;;;;;;1.58;0.50;;;;;;;;;;7391346;19;20473;-75
2022/06/25 05:52:00;;;;;;;2.63;0.50;;;;;;;;;;7393477;19;20006;-75
2022/06/25 05:54:25;;;;;;;1.85;0.80;;;;;;;;;;7386462;19;20002;-75
2022/06/25 05:56:50;;;;;;;1.38;0.50;;;;;;;;;;7393753;19;20017;-75
2022/06/25 05:59:16;;;;;;;0.55;0.40;;;;;;;;;;7394145;19;20024;-75
2022/06/25 06:01:41;;;;;;;0.40;0.40;;;;;;;;;;7388617;19;20026;-75
2022/06/25 06:04:07;;;;;;;0.57;0.50;;;;;;;;;;7389810;19;20374;-75
2022/06/25 06:06:32;;;;;;;1.75;0.60;;;;;;;;;;7394271;19;20473;-75
2022/06/25 06:08:57;;;;;;;1.58;0.50;;;;;;;;;;7388025;19;20029;-75
2022/06/25 06:11:23;;;;;;;0.50;0.40;;;;;;;;;;7394424;19;20014;-75
2022/06/25 06:13:48;;;;;;;0.50;0.45;;;;;;;;;;7391920;19;20015;-75
2022/06/25 06:16:13;;;;;;;1.77;0.70;;;;;;;;;;7395055;19;20074;-75
2022/06/25 06:18:38;;;;;;;1.92;0.55;;;;;;;;;;7388642;19;20062;-75
2022/06/25 06:21:04;;;;;;;1.15;0.50;;;;;;;;;;7392977;19;20423;-75
2022/06/25 06:23:29;;;;;;;4.15;0.57;;;;;;;;;;7388994;19;20062;-75
2022/06/25 06:25:55;;;;;;;0.50;0.50;;;;;;;;;;7394029;19;19999;-75
2022/06/25 06:28:20;;;;;;;0.60;0.60;;;;;;;;;;7393031;19;20318;-75
2022/06/25 06:30:46;;;;;;;2.15;0.90;;;;;;;;;;7394735;19;20011;-75
2022/06/25 06:33:12;;;;;;;0.50;0.50;;;;;;;;;;7392754;19;20486;-75
2022/06/25 06:35:37;;;;;;;3.97;0.65;;;;;;;;;;7390096;19;20014;-75
2022/06/25 06:38:02;;;;;;;1.15;0.60;;;;;;;;;;7388393;19;20066;-75
2022/06/25 06:40:28;;;;;;;1.00;0.70;;;;;;;;;;7389647;19;20587;-75
2022/06/25 06:42:55;;;;;;;0.98;0.60;;;;;;;;;;7390390;19;20634;-75
2022/06/25 06:45:21;;;;;;;0.35;0.32;;;;;;;;;;7395426;19;20003;-75
2022/06/25 06:47:47;;;;;;;1.10;0.70;;;;;;;;;;7387812;19;20342;-75
2022/06/25 06:50:12;;;;;;;0.75;0.60;;;;;;;;;;7389615;19;20127;-75
2022/06/25 06:52:38;;;;;;;1.85;0.80;;;;;;;;;;7388989;19;20006;-75
2022/06/25 06:55:04;;;;;;;0.38;0.38;;;;;;;;;;7390308;19;20005;-75
2022/06/25 06:57:34;;;;;;;1.48;0.57;;;;;;;;;;7390121;19;20023;-75
2022/06/25 07:00:00;;;;;;;0.60;0.60;;;;;;;;;;7393010;19;19994;-75
2022/06/25 07:02:26;;;;;;;1.00;0.50;;;;;;;;;;7385698;19;20651;-75
2022/06/25 07:04:52;;;;;;;0.60;0.60;;;;;;;;;;7385942;19;20013;-75
2022/06/25 07:07:18;;;;;;;0.75;0.65;;;;;;;;;;7392688;19;20402;-75
2022/06/25 07:09:43;;;;;;;2.25;0.98;;;;;;;;;;7390532;19;20078;-75
2022/06/25 07:12:08;;;;;;;0.50;0.50;;;;;;;;;;7388973;19;20085;-74
2022/06/25 07:14:34;;;;;;;0.93;0.50;;;;;;;;;;7391581;19;20468;-74
2022/06/25 07:16:59;;;;;;;1.38;0.50;;;;;;;;;;7391363;19;19991;-74
2022/06/25 07:19:24;;;;;;;1.25;1.00;;;;;;;;;;7390517;19;20476;-75
2022/06/25 07:21:50;;;;;;;0.70;0.55;;;;;;;;;;7390552;19;20415;-74
2022/06/25 07:24:15;;;;;;;1.23;0.70;;;;;;;;;;7389432;19;20015;-75
2022/06/25 07:26:41;;;;;;;1.52;0.68;;;;;;;;;;7391644;19;20019;-75
2022/06/25 07:29:06;;;;;;;0.63;0.63;;;;;;;;;;7388293;19;20014;-74
2022/06/25 07:31:31;;;;;;;0.65;0.50;;;;;;;;;;7390507;19;20003;-74
2022/06/25 07:33:57;;;;;;;1.08;0.57;;;;;;;;;;7385586;19;20011;-75
2022/06/25 07:36:22;;;;;;;0.70;0.40;;;;;;;;;;7387884;19;20012;-75
2022/06/25 07:38:47;;;;;;;1.75;0.50;;;;;;;;;;7390298;19;20106;-74
2022/06/25 07:41:13;;;;;;;2.95;0.40;;;;;;;;;;7390424;19;20005;-74
2022/06/25 07:43:38;;;;;;;0.40;0.40;;;;;;;;;;7388832;19;19998;-74
2022/06/25 07:46:04;;;;;;;1.55;0.43;;;;;;;;;;7389908;19;20094;-74
2022/06/25 07:48:30;;;;;;;0.93;0.50;;;;;;;;;;7386136;19;20019;-74
2022/06/25 07:53:40;;;;;;;0.90;0.60;;;;;;;;;;7389780;19;20021;-74
2022/06/25 07:56:06;;;;;;;0.40;0.40;;;;;;;;;;7389968;19;20003;-74
2022/06/25 07:58:31;;;;;;;0.68;0.57;;;;;;;;;;7388212;19;20381;-74
2022/06/25 08:00:57;;;;;;;0.85;0.60;;;;;;;;;;7388388;19;20066;-74
2022/06/25 08:03:22;;;;;;;1.05;0.70;;;;;;;;;;7387430;19;20086;-74
2022/06/25 08:05:48;;;;;;;0.63;0.40;;;;;;;;;;7391014;19;20071;-74
2022/06/25 08:08:13;;;;;;;0.60;0.45;;;;;;;;;;7386702;19;20054;-74
2022/06/25 08:10:40;;;;;;;4.30;0.50;;;;;;;;;;7387614;19;19998;-74
2022/06/25 08:13:05;;;;;;;0.50;0.50;;;;;;;;;;7386796;19;20461;-74
2022/06/25 08:15:31;;;;;;;1.38;0.40;;;;;;;;;;7388486;19;20006;-74
2022/06/25 08:17:56;;;;;;;1.85;0.50;;;;;;;;;;7388967;19;20018;-74
2022/06/25 08:20:22;;;;;;;1.25;0.35;;;;;;;;;;7387299;19;20458;-74
2022/06/25 08:22:48;;;;;;;0.30;0.30;;;;;;;;;;7386324;19;20108;-74
2022/06/25 08:25:14;;;;;;;1.40;0.50;;;;;;;;;;7389812;19;20572;-74
2022/06/25 08:27:52;;;;;;;0.60;0.60;;;;;;;;;;7389859;19;20793;-74
2022/06/25 08:30:18;;;;;;;0.95;0.40;;;;;;;;;;7391177;19;20010;-74
2022/06/25 08:32:44;;;;;;;0.73;0.43;;;;;;;;;;7386093;19;20007;-74
2022/06/25 08:35:10;;;;;;;1.42;0.85;;;;;;;;;;7390593;19;20023;-74
2022/06/25 08:37:39;;;;;;;1.30;0.60;;;;;;;;;;7386867;19;20001;-74
2022/06/25 08:40:06;;;;;;;0.50;0.50;;;;;;;;;;7390412;19;20016;-74
2022/06/25 08:42:32;;;;;;;1.77;0.65;;;;;;;;;;7384452;19;20003;-74
2022/06/25 08:44:57;;;;;;;3.72;0.80;;;;;;;;;;7386116;19;20070;-74
2022/06/25 08:47:22;;;;;;;2.50;0.60;;;;;;;;;;7386866;19;20071;-74
2022/06/25 08:49:48;;;;;;;0.45;0.40;;;;;;;;;;7389276;19;20011;-75
2022/06/25 08:52:16;;;;;;;1.92;0.60;;;;;;;;;;7388386;19;19999;-75
2022/06/25 08:54:42;;;;;;;0.80;0.43;;;;;;;;;;7387371;19;20014;-75
2022/06/25 08:57:08;;;;;;;2.30;0.50;;;;;;;;;;7385450;19;20036;-75
2022/06/25 08:59:34;;;;;;;0.40;0.40;;;;;;;;;;7387185;19;20446;-75
2022/06/25 09:01:59;;;;;;;1.15;0.40;;;;;;;;;;7386105;19;20370;-76
2022/06/25 09:04:24;;;;;;;0.65;0.40;;;;;;;;;;7384854;19;20150;-75
2022/06/25 09:06:50;;;;;;;0.90;0.50;;;;;;;;;;7392370;19;20015;-75
2022/06/25 09:09:16;;;;;;;2.50;0.40;;;;;;;;;;7390697;19;20010;-75
2022/06/25 09:11:53;;;;;;;0.30;0.30;;;;;;;;;;7395234;19;20025;-75
2022/06/25 09:14:24;;;;;;;0.93;0.40;;;;;;;;;;7396239;19;20008;-75
2022/06/25 09:17:04;;;;;;;0.80;0.50;;;;;;;;;;7393773;19;20026;-75
2022/06/25 09:19:38;;;;;;;0.40;0.38;;;;;;;;;;7391834;19;20085;-75
2022/06/25 09:22:09;;;;;;;0.80;0.40;;;;;;;;;;7393577;19;20006;-75
2022/06/25 09:24:51;;;;;;;0.30;0.30;;;;;;;;;;7393891;19;20449;-75
2022/06/25 09:27:33;;;;;;;1.58;0.50;;;;;;;;;;7396388;19;20357;-75
2022/06/25 09:30:08;;;;;;;0.50;0.40;;;;;;;;;;7391142;19;19998;-76
2022/06/25 09:32:43;;;;;;;1.50;0.30;;;;;;;;;;7394718;19;20845;-75
2022/06/25 09:35:10;;;;;;;0.22;0.20;;;;;;;;;;7396466;19;20058;-76
2022/06/25 09:37:36;;;;;;;1.05;0.30;;;;;;;;;;7394982;19;20009;-76
2022/06/25 09:40:04;;;;;;;1.02;0.50;;;;;;;;;;7393662;19;20003;-76
2022/06/25 09:42:32;;;;;;;1.33;0.52;;;;;;;;;;7391973;19;20508;-76
2022/06/25 09:45:09;;;;;;;0.95;0.40;;;;;;;;;;7393585;19;20397;-75
2022/06/25 09:47:37;;;;;;;0.93;0.38;;;;;;;;;;7390458;19;20026;-76
2022/06/25 09:50:23;;;;;;;1.52;0.65;;;;;;;;;;7391859;19;20021;-75
2022/06/25 09:53:01;;;;;;;0.55;0.45;;;;;;;;;;7390626;19;19998;-75
2022/06/25 09:55:39;;;;;;;0.50;0.50;;;;;;;;;;7393612;19;20576;-75
2022/06/25 09:58:05;;;;;;;5.85;3.92;;;;;;;;;;7392379;19;20000;-75
2022/06/25 10:00:31;;;;;;;3.00;1.00;;;;;;;;;;7394483;19;20009;-75
2022/06/25 10:02:58;;;;;;;3.10;0.55;;;;;;;;;;7388083;19;19994;-75
2022/06/25 10:05:30;;;;;;;1.20;0.60;;;;;;;;;;7394025;19;20018;-74
2022/06/25 10:08:04;;;;;;;0.73;0.47;;;;;;;;;;7391831;19;20058;-75
2022/06/25 10:10:33;;;;;;;0.75;0.40;;;;;;;;;;7395031;19;20018;-75
2022/06/25 10:13:00;;;;;;;0.63;0.43;;;;;;;;;;7394407;19;20331;-75
2022/06/25 10:15:26;;;;;;;4.57;0.50;;;;;;;;;;7392632;19;20442;-75
2022/06/25 10:17:53;;;;;;;2.45;0.50;;;;;;;;;;7390276;19;20006;-76
2022/06/25 10:20:19;;;;;;;0.20;0.20;;;;;;;;;;7390947;19;19994;-75
2022/06/25 10:22:49;;;;;;;1.77;0.50;;;;;;;;;;7390312;19;20002;-76
2022/06/25 10:25:17;;;;;;;0.93;0.50;;;;;;;;;;7393838;19;20659;-75
2022/06/25 10:27:47;;;;;;;2.78;0.90;;;;;;;;;;7393165;19;19998;-75
2022/06/25 10:30:15;;;;;;;1.50;0.77;;;;;;;;;;7391535;19;20313;-75
2022/06/25 10:32:46;;;;;;;0.77;0.40;;;;;;;;;;7390076;19;19999;-75
2022/06/25 10:35:28;;;;;;;0.50;0.47;;;;;;;;;;7390748;19;19995;-75
2022/06/25 10:38:02;;;;;;;2.05;0.60;;;;;;;;;;7391072;19;20014;-76
2022/06/25 10:40:27;;;;;;;2.17;0.60;;;;;;;;;;7393278;19;20007;-75
2022/06/25 10:42:59;;;;;;;1.92;0.82;;;;;;;;;;7392430;19;20002;-75
2022/06/25 10:45:24;;;;;;;1.52;0.47;;;;;;;;;;7393349;19;20070;-76
2022/06/25 10:47:54;;;;;;;1.30;0.60;;;;;;;;;;7389115;19;20006;-75
2022/06/25 10:50:22;;;;;;;0.82;0.40;;;;;;;;;;7394154;19;20078;-75
2022/06/25 10:53:03;;;;;;;3.47;0.90;;;;;;;;;;7392772;19;20446;-74
2022/06/25 10:55:46;;;;;;;1.70;0.60;;;;;;;;;;7390667;19;19990;-77
2022/06/25 10:58:25;;;;;;;1.27;0.50;;;;;;;;;;7391747;19;20021;-75
2022/06/25 11:00:53;;;;;;;1.05;0.40;;;;;;;;;;7392676;19;20006;-75
2022/06/25 11:03:38;;;;;;;1.83;1.33;;;;;;;;;;7391180;19;20010;-75
2022/06/25 11:06:22;;;;;;;;;;;;;;;;;;7393179;19;19994;-75
2022/06/25 11:08:49;;;;;;;0.43;0.40;;;;;;;;;;7390616;19;19918;-74
2022/06/25 11:11:28;;;;;;;1.38;0.50;;;;;;;;;;7393741;19;20011;-75
2022/06/25 11:13:54;;;;;;;0.32;0.32;;;;;;;;;;7389404;19;20442;-75
2022/06/25 11:16:19;;;;;;;0.45;0.43;;;;;;;;;;7389678;19;20021;-75
2022/06/25 11:18:54;;;;;;;0.82;0.40;;;;;;;;;;7387298;19;19995;-75
2022/06/25 11:21:39;;;;;;;;;;;;;;;;;;7392383;19;20117;-75
2022/06/25 11:24:25;;;;;;;0.82;0.40;;;;;;;;;;7391790;19;19943;-75
2022/06/25 11:29:49;;;;;;;0.52;0.52;;;;;;;;;;7390716;19;20456;-75
2022/06/25 11:32:25;;;;;;;0.50;0.50;;;;;;;;;;7391931;19;20092;-75
2022/06/25 11:34:56;;;;;;;1.30;0.50;;;;;;;;;;7388645;19;20364;-75
2022/06/25 11:37:22;;;;;;;0.40;0.40;;;;;;;;;;7389951;19;20342;-76
2022/06/25 11:39:48;;;;;;;0.77;0.40;;;;;;;;;;7391805;19;19994;-75
2022/06/25 11:42:14;;;;;;;0.20;0.20;;;;;;;;;;7390234;19;20355;-75
2022/06/25 11:44:45;;;;;;;0.40;0.40;;;;;;;;;;7391112;19;20445;-75
2022/06/25 11:47:18;;;;;;;1.00;0.32;;;;;;;;;;7388293;19;20006;-75
2022/06/25 11:49:44;;;;;;;0.88;0.30;;;;;;;;;;7389592;19;19999;-75
2022/06/25 11:52:10;;;;;;;0.60;0.22;;;;;;;;;;7389224;19;20017;-75
2022/06/25 11:54:38;;;;;;;0.52;0.20;;;;;;;;;;7391446;19;20010;-75
2022/06/25 11:57:05;;;;;;;0.75;0.50;;;;;;;;;;7391978;19;20537;-75
2022/06/25 11:59:34;;;;;;;0.40;0.40;;;;;;;;;;7391703;19;20005;-75
2022/06/25 12:02:00;;;;;;;1.27;0.40;;;;;;;;;;7386858;19;20016;-75
2022/06/25 12:04:26;;;;;;;0.90;0.40;;;;;;;;;;7386496;19;20380;-76
2022/06/25 12:06:52;;;;;;;1.55;0.40;;;;;;;;;;7391873;19;20017;-75
2022/06/25 12:09:19;;;;;;;0.32;0.32;;;;;;;;;;7391336;19;20011;-75
2022/06/25 12:11:51;;;;;;;0.90;0.45;;;;;;;;;;7391297;19;20007;-75
2022/06/25 12:14:31;;;;;;;0.47;0.40;;;;;;;;;;7391474;19;20406;-75
2022/06/25 12:16:58;;;;;;;0.50;0.30;;;;;;;;;;7388593;19;20025;-75
2022/06/25 12:19:42;;;;;;;0.20;0.20;;;;;;;;;;7387703;19;20026;-76
2022/06/25 12:22:27;;;;;;;0.88;0.60;;;;;;;;;;7389884;19;20026;-76
2022/06/25 12:24:56;;;;;;;1.20;0.50;;;;;;;;;;7390065;19;20026;-75
2022/06/25 12:27:25;;;;;;;0.50;0.28;;;;;;;;;;7388216;19;20082;-75
2022/06/25 12:29:55;;;;;;;0.40;0.40;;;;;;;;;;7389372;19;19999;-75
2022/06/25 12:32:35;;;;;;;1.05;0.30;;;;;;;;;;7390937;19;20433;-75
2022/06/25 12:35:00;;;;;;;0.20;0.20;;;;;;;;;;7386609;19;19999;-75
2022/06/25 12:37:28;;;;;;;0.40;0.40;;;;;;;;;;7389842;19;20010;-76
2022/06/25 12:39:57;;;;;;;0.20;0.20;;;;;;;;;;7391175;19;20010;-75
2022/06/25 12:42:23;;;;;;;0.85;0.35;;;;;;;;;;7391271;19;19987;-75
2022/06/25 12:44:49;;;;;;;0.30;0.30;;;;;;;;;;7395805;19;20021;-75
2022/06/25 12:47:16;;;;;;;0.30;0.30;;;;;;;;;;7398412;19;20024;-75
2022/06/25 12:49:47;;;;;;;0.28;0.22;;;;;;;;;;7396656;19;20009;-75
2022/06/25 12:52:16;;;;;;;0.35;0.30;;;;;;;;;;7399786;19;20066;-75
2022/06/25 12:54:42;;;;;;;0.30;0.30;;;;;;;;;;7393867;19;19998;-75
2022/06/25 12:57:08;;;;;;;0.40;0.32;;;;;;;;;;7398592;19;20028;-75
2022/06/25 12:59:33;;;;;;;0.22;0.22;;;;;;;;;;7395008;19;19999;-75
2022/06/25 13:01:58;;;;;;;3.30;0.40;;;;;;;;;;7390980;19;20014;-75
2022/06/25 13:04:24;;;;;;;0.45;0.40;;;;;;;;;;7390426;19;20454;-75
2022/06/25 13:06:49;;;;;;;2.35;0.30;;;;;;;;;;7395096;19;20003;-75
2022/06/25 13:09:14;;;;;;;0.57;0.20;;;;;;;;;;7395882;19;20299;-75
2022/06/25 13:11:40;;;;;;;1.55;0.30;;;;;;;;;;7396893;19;20407;-75
2022/06/25 13:14:05;;;;;;;0.32;0.32;;;;;;;;;;7394829;19;20327;-75
2022/06/25 13:16:31;;;;;;;0.65;0.20;;;;;;;;;;7394560;19;20116;-75
2022/06/25 13:18:56;;;;;;;0.15;0.15;;;;;;;;;;7392945;19;19987;-75
2022/06/25 13:21:22;;;;;;;0.40;0.20;;;;;;;;;;7394799;19;20003;-75
2022/06/25 13:23:48;;;;;;;0.30;0.30;;;;;;;;;;7395206;19;19998;-75
2022/06/25 13:26:14;;;;;;;0.22;0.17;;;;;;;;;;7397717;19;20018;-75
2022/06/25 13:28:39;;;;;;;0.30;0.30;;;;;;;;;;7396097;19;20011;-76
2022/06/25 13:31:04;;;;;;;0.30;0.30;;;;;;;;;;7397902;19;20030;-76
2022/06/25 13:33:30;;;;;;;0.45;0.30;;;;;;;;;;7391861;19;20003;-76
2022/06/25 13:35:55;;;;;;;0.63;0.28;;;;;;;;;;7397587;19;20002;-76
2022/06/25 13:38:21;;;;;;;0.68;0.30;;;;;;;;;;7396541;19;19990;-76
2022/06/25 13:40:46;;;;;;;0.55;0.40;;;;;;;;;;7397053;19;20306;-76
2022/06/25 13:43:12;;;;;;;0.40;0.40;;;;;;;;;;7392652;19;19997;-77
2022/06/25 13:45:37;;;;;;;0.30;0.30;;;;;;;;;;7393781;19;20483;-76
2022/06/25 13:48:03;;;;;;;0.35;0.22;;;;;;;;;;7393894;19;20350;-76
2022/06/25 13:50:28;;;;;;;0.40;0.30;;;;;;;;;;7395319;19;20462;-77
2022/06/25 13:52:54;;;;;;;1.65;0.68;;;;;;;;;;7396022;19;20787;-75
2022/06/25 13:55:19;;;;;;;0.22;0.20;;;;;;;;;;7395399;19;20351;-76
2022/06/25 13:57:44;;;;;;;2.47;1.35;;;;;;;;;;7395530;19;20080;-76
2022/06/25 14:00:10;;;;;;;0.38;0.38;;;;;;;;;;7397204;19;20006;-76
2022/06/25 14:02:36;;;;;;;0.30;0.30;;;;;;;;;;7389322;19;20018;-76
2022/06/25 14:05:01;;;;;;;0.40;0.30;;;;;;;;;;7392820;19;19998;-76
2022/06/25 14:07:28;;;;;;;0.77;0.50;;;;;;;;;;7395491;19;20003;-76
2022/06/25 14:09:53;;;;;;;0.60;0.30;;;;;;;;;;7395006;19;20010;-76
2022/06/25 14:12:18;;;;;;;0.90;0.40;;;;;;;;;;7397089;19;20014;-76
2022/06/25 14:14:44;;;;;;;1.13;1.10;;;;;;;;;;7393113;19;20008;-76
2022/06/25 14:17:09;;;;;;;0.77;0.70;;;;;;;;;;7395428;19;20365;-76
2022/06/25 14:19:35;;;;;;;0.50;0.50;;;;;;;;;;7391731;19;20456;-76
2022/06/25 14:22:00;;;;;;;1.67;0.43;;;;;;;;;;7394628;19;20383;-76
2022/06/25 14:27:10;;;;;;;0.38;0.30;;;;;;;;;;7396108;19;20014;-76
2022/06/25 14:29:35;;;;;;;0.25;0.25;;;;;;;;;;7391670;19;20378;-76
2022/06/25 14:32:00;;;;;;;0.63;0.40;;;;;;;;;;7391239;19;19995;-76
2022/06/25 14:34:26;;;;;;;0.70;0.32;;;;;;;;;;7390826;19;20328;-76
2022/06/25 14:42:22;;;;;;;0.20;0.20;;;;;;;;;;7394570;19;20035;-75
2022/06/25 14:44:50;;;;;;;0.85;0.30;;;;;;;;;;7389682;19;20007;-76
2022/06/25 14:47:16;;;;;;;1.65;0.20;;;;;;;;;;7393178;19;19995;-76
2022/06/25 14:49:42;;;;;;;0.88;0.30;;;;;;;;;;7393179;19;20010;-76
2022/06/25 14:52:07;;;;;;;0.32;0.28;;;;;;;;;;7395679;19;20007;-76
2022/06/25 14:54:33;;;;;;;0.85;0.32;;;;;;;;;;7389814;19;20007;-76
2022/06/25 14:56:59;;;;;;;0.88;0.30;;;;;;;;;;7391737;19;20410;-76
2022/06/25 14:59:25;;;;;;;0.25;0.25;;;;;;;;;;7392806;19;19995;-76
2022/06/25 15:01:50;;;;;;;0.47;0.40;;;;;;;;;;7392690;19;20020;-76
2022/06/25 15:04:16;;;;;;;3.50;0.40;;;;;;;;;;7389868;19;20054;-76
2022/06/25 15:06:41;;;;;;;0.30;0.30;;;;;;;;;;7395495;19;20047;-76